sensor_id;sensor_type;location;lat;lon;timestamp;P1;durP1;ratioP1;P2;durP2;ratioP2
19171;SDS011;9718;52.200;21.052;2022-10-16T00:01:20;18.67;;;9.40;;
19171;SDS011;9718;52.200;21.052;2022-10-16T00:03:49;17.97;;;10.13;;
19171;SDS011;9718;52.200;21.052;2022-10-16T00:06:17;17.20;;;9.60;;
19171;SDS011;9718;52.200;21.052;2022-10-16T00:08:47;16.53;;;9.43;;
19171;SDS011;9718;52.200;21.052;2022-10-16T00:13:56;21.33;;;10.10;;
19171;SDS011;9718;52.200;21.052;2022-10-16T00:16:25;18.70;;;9.20;;
19171;SDS011;9718;52.200;21.052;2022-10-16T00:18:53;20.53;;;10.53;;
19171;SDS011;9718;52.200;21.052;2022-10-16T00:21:21;18.40;;;10.47;;
19171;SDS011;9718;52.200;21.052;2022-10-16T00:23:53;18.50;;;10.13;;
19171;SDS011;9718;52.200;21.052;2022-10-16T00:26:22;21.17;;;9.90;;
19171;SDS011;9718;52.200;21.052;2022-10-16T00:28:50;21.43;;;10.10;;
19171;SDS011;9718;52.200;21.052;2022-10-16T00:31:19;17.43;;;9.77;;
19171;SDS011;9718;52.200;21.052;2022-10-16T00:33:48;16.30;;;9.87;;
19171;SDS011;9718;52.200;21.052;2022-10-16T00:36:17;21.17;;;11.10;;
19171;SDS011;9718;52.200;21.052;2022-10-16T00:38:46;20.90;;;10.03;;
19171;SDS011;9718;52.200;21.052;2022-10-16T00:41:16;16.43;;;10.47;;
19171;SDS011;9718;52.200;21.052;2022-10-16T00:43:49;17.53;;;9.97;;
19171;SDS011;9718;52.200;21.052;2022-10-16T00:49:01;21.80;;;11.43;;
19171;SDS011;9718;52.200;21.052;2022-10-16T00:51:37;18.33;;;10.93;;
19171;SDS011;9718;52.200;21.052;2022-10-16T00:54:14;18.07;;;10.77;;
19171;SDS011;9718;52.200;21.052;2022-10-16T00:56:45;22.13;;;11.57;;
19171;SDS011;9718;52.200;21.052;2022-10-16T00:59:19;22.27;;;11.53;;
19171;SDS011;9718;52.200;21.052;2022-10-16T01:01:47;24.70;;;12.00;;
19171;SDS011;9718;52.200;21.052;2022-10-16T01:04:14;25.57;;;12.07;;
19171;SDS011;9718;52.200;21.052;2022-10-16T01:06:51;21.63;;;12.93;;
19171;SDS011;9718;52.200;21.052;2022-10-16T01:15:36;23.30;;;11.00;;
19171;SDS011;9718;52.200;21.052;2022-10-16T01:21:04;23.73;;;12.43;;
19171;SDS011;9718;52.200;21.052;2022-10-16T01:23:51;22.13;;;10.93;;
19171;SDS011;9718;52.200;21.052;2022-10-16T01:29:28;21.30;;;11.30;;
19171;SDS011;9718;52.200;21.052;2022-10-16T01:32:15;20.03;;;11.80;;
19171;SDS011;9718;52.200;21.052;2022-10-16T01:34:49;22.30;;;11.33;;
19171;SDS011;9718;52.200;21.052;2022-10-16T01:37:27;19.67;;;11.40;;
19171;SDS011;9718;52.200;21.052;2022-10-16T01:40:03;20.80;;;12.20;;
19171;SDS011;9718;52.200;21.052;2022-10-16T01:42:40;23.60;;;10.97;;
19171;SDS011;9718;52.200;21.052;2022-10-16T01:45:11;21.13;;;11.40;;
19171;SDS011;9718;52.200;21.052;2022-10-16T01:47:41;20.73;;;11.03;;
19171;SDS011;9718;52.200;21.052;2022-10-16T01:50:10;19.30;;;11.63;;
19171;SDS011;9718;52.200;21.052;2022-10-16T01:52:41;22.43;;;11.20;;
19171;SDS011;9718;52.200;21.052;2022-10-16T01:55:11;20.10;;;10.93;;
19171;SDS011;9718;52.200;21.052;2022-10-16T01:57:41;23.80;;;12.40;;
19171;SDS011;9718;52.200;21.052;2022-10-16T02:00:13;21.67;;;11.37;;
19171;SDS011;9718;52.200;21.052;2022-10-16T02:02:44;21.90;;;11.60;;
19171;SDS011;9718;52.200;21.052;2022-10-16T02:07:47;23.10;;;12.00;;
19171;SDS011;9718;52.200;21.052;2022-10-16T02:10:15;20.43;;;11.33;;
19171;SDS011;9718;52.200;21.052;2022-10-16T02:12:44;25.30;;;11.83;;
19171;SDS011;9718;52.200;21.052;2022-10-16T02:15:16;19.73;;;11.33;;
19171;SDS011;9718;52.200;21.052;2022-10-16T02:17:43;20.50;;;12.37;;
19171;SDS011;9718;52.200;21.052;2022-10-16T02:20:11;24.00;;;12.57;;
19171;SDS011;9718;52.200;21.052;2022-10-16T02:22:39;23.73;;;13.23;;
19171;SDS011;9718;52.200;21.052;2022-10-16T02:25:10;22.50;;;13.10;;
19171;SDS011;9718;52.200;21.052;2022-10-16T02:27:55;23.73;;;13.63;;
19171;SDS011;9718;52.200;21.052;2022-10-16T02:33:06;24.87;;;13.53;;
19171;SDS011;9718;52.200;21.052;2022-10-16T02:35:36;24.50;;;14.37;;
19171;SDS011;9718;52.200;21.052;2022-10-16T02:38:04;27.33;;;14.97;;
19171;SDS011;9718;52.200;21.052;2022-10-16T02:40:33;24.63;;;13.37;;
19171;SDS011;9718;52.200;21.052;2022-10-16T02:43:02;24.43;;;13.97;;
19171;SDS011;9718;52.200;21.052;2022-10-16T02:45:31;22.53;;;13.60;;
19171;SDS011;9718;52.200;21.052;2022-10-16T02:47:58;25.23;;;14.17;;
19171;SDS011;9718;52.200;21.052;2022-10-16T02:50:25;23.63;;;13.43;;
19171;SDS011;9718;52.200;21.052;2022-10-16T02:52:52;27.63;;;15.27;;
19171;SDS011;9718;52.200;21.052;2022-10-16T02:55:19;25.07;;;14.97;;
19171;SDS011;9718;52.200;21.052;2022-10-16T02:57:47;25.23;;;14.73;;
19171;SDS011;9718;52.200;21.052;2022-10-16T03:00:14;25.27;;;14.43;;
19171;SDS011;9718;52.200;21.052;2022-10-16T03:02:43;29.10;;;14.43;;
19171;SDS011;9718;52.200;21.052;2022-10-16T03:05:10;24.87;;;14.67;;
19171;SDS011;9718;52.200;21.052;2022-10-16T03:07:38;28.40;;;13.47;;
19171;SDS011;9718;52.200;21.052;2022-10-16T03:10:06;37.67;;;15.23;;
19171;SDS011;9718;52.200;21.052;2022-10-16T03:12:33;24.17;;;14.17;;
19171;SDS011;9718;52.200;21.052;2022-10-16T03:15:00;24.10;;;14.77;;
19171;SDS011;9718;52.200;21.052;2022-10-16T03:17:27;28.77;;;13.83;;
19171;SDS011;9718;52.200;21.052;2022-10-16T03:19:55;26.03;;;13.97;;
19171;SDS011;9718;52.200;21.052;2022-10-16T03:22:22;26.17;;;14.80;;
19171;SDS011;9718;52.200;21.052;2022-10-16T03:24:49;27.73;;;14.60;;
19171;SDS011;9718;52.200;21.052;2022-10-16T03:27:16;28.13;;;15.03;;
19171;SDS011;9718;52.200;21.052;2022-10-16T03:29:43;26.97;;;14.33;;
19171;SDS011;9718;52.200;21.052;2022-10-16T03:32:12;27.17;;;14.50;;
19171;SDS011;9718;52.200;21.052;2022-10-16T03:34:39;24.57;;;15.17;;
19171;SDS011;9718;52.200;21.052;2022-10-16T03:37:07;25.17;;;14.20;;
19171;SDS011;9718;52.200;21.052;2022-10-16T03:39:34;25.93;;;15.07;;
19171;SDS011;9718;52.200;21.052;2022-10-16T03:42:01;27.53;;;15.37;;
19171;SDS011;9718;52.200;21.052;2022-10-16T03:44:29;25.27;;;13.70;;
19171;SDS011;9718;52.200;21.052;2022-10-16T03:46:56;25.23;;;14.60;;
19171;SDS011;9718;52.200;21.052;2022-10-16T03:49:23;23.63;;;14.43;;
19171;SDS011;9718;52.200;21.052;2022-10-16T03:51:51;27.27;;;14.37;;
19171;SDS011;9718;52.200;21.052;2022-10-16T03:54:17;26.23;;;13.80;;
19171;SDS011;9718;52.200;21.052;2022-10-16T03:56:45;30.73;;;14.57;;
19171;SDS011;9718;52.200;21.052;2022-10-16T03:59:12;23.13;;;13.50;;
19171;SDS011;9718;52.200;21.052;2022-10-16T04:01:39;27.10;;;14.27;;
19171;SDS011;9718;52.200;21.052;2022-10-16T04:04:06;26.93;;;14.10;;
19171;SDS011;9718;52.200;21.052;2022-10-16T04:06:34;26.87;;;13.30;;
19171;SDS011;9718;52.200;21.052;2022-10-16T04:09:00;26.17;;;14.40;;
19171;SDS011;9718;52.200;21.052;2022-10-16T04:11:28;26.00;;;14.00;;
19171;SDS011;9718;52.200;21.052;2022-10-16T04:13:56;22.77;;;14.00;;
19171;SDS011;9718;52.200;21.052;2022-10-16T04:16:23;23.97;;;13.87;;
19171;SDS011;9718;52.200;21.052;2022-10-16T04:18:50;25.00;;;14.27;;
19171;SDS011;9718;52.200;21.052;2022-10-16T04:21:17;23.47;;;13.50;;
19171;SDS011;9718;52.200;21.052;2022-10-16T04:23:44;25.00;;;14.27;;
19171;SDS011;9718;52.200;21.052;2022-10-16T04:26:11;26.83;;;13.53;;
19171;SDS011;9718;52.200;21.052;2022-10-16T04:28:38;26.73;;;14.97;;
19171;SDS011;9718;52.200;21.052;2022-10-16T04:31:06;24.00;;;13.83;;
19171;SDS011;9718;52.200;21.052;2022-10-16T04:33:33;30.13;;;15.00;;
19171;SDS011;9718;52.200;21.052;2022-10-16T04:36:01;27.33;;;14.77;;
19171;SDS011;9718;52.200;21.052;2022-10-16T04:38:29;24.27;;;14.20;;
19171;SDS011;9718;52.200;21.052;2022-10-16T04:40:57;23.40;;;13.70;;
19171;SDS011;9718;52.200;21.052;2022-10-16T04:43:24;28.33;;;13.87;;
19171;SDS011;9718;52.200;21.052;2022-10-16T04:45:51;25.40;;;13.63;;
19171;SDS011;9718;52.200;21.052;2022-10-16T04:48:18;23.67;;;13.87;;
19171;SDS011;9718;52.200;21.052;2022-10-16T04:50:45;28.40;;;13.77;;
19171;SDS011;9718;52.200;21.052;2022-10-16T04:53:22;28.00;;;13.53;;
19171;SDS011;9718;52.200;21.052;2022-10-16T04:55:50;25.03;;;13.13;;
19171;SDS011;9718;52.200;21.052;2022-10-16T04:58:17;23.67;;;13.30;;
19171;SDS011;9718;52.200;21.052;2022-10-16T05:00:44;23.17;;;12.90;;
19171;SDS011;9718;52.200;21.052;2022-10-16T05:03:13;21.97;;;12.77;;
19171;SDS011;9718;52.200;21.052;2022-10-16T05:05:44;21.03;;;12.23;;
19171;SDS011;9718;52.200;21.052;2022-10-16T05:08:12;24.10;;;12.00;;
19171;SDS011;9718;52.200;21.052;2022-10-16T05:10:43;22.67;;;12.30;;
19171;SDS011;9718;52.200;21.052;2022-10-16T05:13:11;22.13;;;12.50;;
19171;SDS011;9718;52.200;21.052;2022-10-16T05:15:38;23.50;;;12.40;;
19171;SDS011;9718;52.200;21.052;2022-10-16T05:18:06;26.20;;;12.30;;
19171;SDS011;9718;52.200;21.052;2022-10-16T05:20:33;19.80;;;11.40;;
19171;SDS011;9718;52.200;21.052;2022-10-16T05:23:00;22.77;;;11.70;;
19171;SDS011;9718;52.200;21.052;2022-10-16T05:25:27;24.43;;;12.20;;
19171;SDS011;9718;52.200;21.052;2022-10-16T05:27:54;25.40;;;12.07;;
19171;SDS011;9718;52.200;21.052;2022-10-16T05:30:22;20.03;;;12.13;;
19171;SDS011;9718;52.200;21.052;2022-10-16T05:32:49;20.27;;;11.30;;
19171;SDS011;9718;52.200;21.052;2022-10-16T05:35:17;20.67;;;11.63;;
19171;SDS011;9718;52.200;21.052;2022-10-16T05:37:45;23.10;;;11.40;;
19171;SDS011;9718;52.200;21.052;2022-10-16T05:40:13;19.37;;;11.93;;
19171;SDS011;9718;52.200;21.052;2022-10-16T05:42:40;18.67;;;11.10;;
19171;SDS011;9718;52.200;21.052;2022-10-16T05:45:09;20.60;;;11.50;;
19171;SDS011;9718;52.200;21.052;2022-10-16T05:47:37;24.27;;;10.90;;
19171;SDS011;9718;52.200;21.052;2022-10-16T05:50:05;23.00;;;12.17;;
19171;SDS011;9718;52.200;21.052;2022-10-16T05:52:33;18.57;;;11.23;;
19171;SDS011;9718;52.200;21.052;2022-10-16T05:55:00;19.70;;;11.57;;
19171;SDS011;9718;52.200;21.052;2022-10-16T05:57:27;19.97;;;11.80;;
19171;SDS011;9718;52.200;21.052;2022-10-16T05:59:55;17.07;;;10.70;;
19171;SDS011;9718;52.200;21.052;2022-10-16T06:02:22;19.13;;;11.50;;
19171;SDS011;9718;52.200;21.052;2022-10-16T06:04:51;19.37;;;12.03;;
19171;SDS011;9718;52.200;21.052;2022-10-16T06:07:20;22.43;;;12.67;;
19171;SDS011;9718;52.200;21.052;2022-10-16T06:09:48;23.43;;;11.33;;
19171;SDS011;9718;52.200;21.052;2022-10-16T06:12:16;20.93;;;11.67;;
19171;SDS011;9718;52.200;21.052;2022-10-16T06:14:44;17.90;;;10.93;;
19171;SDS011;9718;52.200;21.052;2022-10-16T06:17:13;18.03;;;11.53;;
19171;SDS011;9718;52.200;21.052;2022-10-16T06:19:40;22.67;;;11.13;;
19171;SDS011;9718;52.200;21.052;2022-10-16T06:22:07;19.70;;;11.77;;
19171;SDS011;9718;52.200;21.052;2022-10-16T06:24:35;20.07;;;11.77;;
19171;SDS011;9718;52.200;21.052;2022-10-16T06:27:02;19.43;;;11.40;;
19171;SDS011;9718;52.200;21.052;2022-10-16T06:29:30;19.07;;;11.70;;
19171;SDS011;9718;52.200;21.052;2022-10-16T06:31:57;19.87;;;11.30;;
19171;SDS011;9718;52.200;21.052;2022-10-16T06:34:25;18.73;;;10.70;;
19171;SDS011;9718;52.200;21.052;2022-10-16T06:36:52;21.73;;;11.97;;
19171;SDS011;9718;52.200;21.052;2022-10-16T06:39:19;18.17;;;11.00;;
19171;SDS011;9718;52.200;21.052;2022-10-16T06:41:46;23.33;;;10.73;;
19171;SDS011;9718;52.200;21.052;2022-10-16T06:44:14;16.47;;;10.30;;
19171;SDS011;9718;52.200;21.052;2022-10-16T06:46:41;20.17;;;11.03;;
19171;SDS011;9718;52.200;21.052;2022-10-16T06:49:08;20.07;;;11.07;;
19171;SDS011;9718;52.200;21.052;2022-10-16T06:51:35;24.10;;;11.37;;
19171;SDS011;9718;52.200;21.052;2022-10-16T06:54:09;22.27;;;11.20;;
19171;SDS011;9718;52.200;21.052;2022-10-16T06:56:36;21.30;;;11.03;;
19171;SDS011;9718;52.200;21.052;2022-10-16T06:59:04;18.13;;;10.60;;
19171;SDS011;9718;52.200;21.052;2022-10-16T07:01:31;18.47;;;10.63;;
19171;SDS011;9718;52.200;21.052;2022-10-16T07:03:59;15.97;;;10.57;;
19171;SDS011;9718;52.200;21.052;2022-10-16T07:06:30;18.17;;;10.83;;
19171;SDS011;9718;52.200;21.052;2022-10-16T07:09:00;17.73;;;10.63;;
19171;SDS011;9718;52.200;21.052;2022-10-16T07:11:30;17.83;;;10.77;;
19171;SDS011;9718;52.200;21.052;2022-10-16T07:13:57;18.10;;;10.73;;
19171;SDS011;9718;52.200;21.052;2022-10-16T07:16:28;19.03;;;11.40;;
19171;SDS011;9718;52.200;21.052;2022-10-16T07:18:57;17.53;;;10.37;;
19171;SDS011;9718;52.200;21.052;2022-10-16T07:21:28;18.67;;;10.87;;
19171;SDS011;9718;52.200;21.052;2022-10-16T07:24:00;21.43;;;10.60;;
19171;SDS011;9718;52.200;21.052;2022-10-16T07:26:28;17.73;;;11.00;;
19171;SDS011;9718;52.200;21.052;2022-10-16T07:28:57;19.63;;;11.33;;
19171;SDS011;9718;52.200;21.052;2022-10-16T07:31:25;19.37;;;10.60;;
19171;SDS011;9718;52.200;21.052;2022-10-16T07:33:52;22.37;;;10.87;;
19171;SDS011;9718;52.200;21.052;2022-10-16T07:36:20;22.27;;;10.93;;
19171;SDS011;9718;52.200;21.052;2022-10-16T07:38:48;19.63;;;11.43;;
19171;SDS011;9718;52.200;21.052;2022-10-16T07:41:19;19.80;;;11.17;;
19171;SDS011;9718;52.200;21.052;2022-10-16T07:43:47;19.73;;;10.83;;
19171;SDS011;9718;52.200;21.052;2022-10-16T07:46:15;15.67;;;10.33;;
19171;SDS011;9718;52.200;21.052;2022-10-16T07:48:44;18.63;;;11.27;;
19171;SDS011;9718;52.200;21.052;2022-10-16T07:51:14;19.30;;;12.03;;
19171;SDS011;9718;52.200;21.052;2022-10-16T07:53:43;17.83;;;10.33;;
19171;SDS011;9718;52.200;21.052;2022-10-16T07:56:10;16.67;;;9.63;;
19171;SDS011;9718;52.200;21.052;2022-10-16T07:58:38;17.83;;;10.40;;
19171;SDS011;9718;52.200;21.052;2022-10-16T08:01:06;17.83;;;10.40;;
19171;SDS011;9718;52.200;21.052;2022-10-16T08:03:35;18.43;;;9.57;;
19171;SDS011;9718;52.200;21.052;2022-10-16T08:06:03;14.60;;;10.40;;
19171;SDS011;9718;52.200;21.052;2022-10-16T08:08:31;18.93;;;9.47;;
19171;SDS011;9718;52.200;21.052;2022-10-16T08:10:58;18.10;;;10.03;;
19171;SDS011;9718;52.200;21.052;2022-10-16T08:13:26;15.53;;;10.03;;
19171;SDS011;9718;52.200;21.052;2022-10-16T08:15:53;17.37;;;10.27;;
19171;SDS011;9718;52.200;21.052;2022-10-16T08:18:21;16.67;;;9.93;;
19171;SDS011;9718;52.200;21.052;2022-10-16T08:20:54;14.23;;;9.67;;
19171;SDS011;9718;52.200;21.052;2022-10-16T08:23:23;18.40;;;9.40;;
19171;SDS011;9718;52.200;21.052;2022-10-16T08:25:53;16.73;;;9.37;;
19171;SDS011;9718;52.200;21.052;2022-10-16T08:28:20;20.03;;;10.13;;
19171;SDS011;9718;52.200;21.052;2022-10-16T08:30:48;17.43;;;9.57;;
19171;SDS011;9718;52.200;21.052;2022-10-16T08:33:16;18.20;;;10.20;;
19171;SDS011;9718;52.200;21.052;2022-10-16T08:35:43;16.93;;;10.23;;
19171;SDS011;9718;52.200;21.052;2022-10-16T08:38:17;14.63;;;9.80;;
19171;SDS011;9718;52.200;21.052;2022-10-16T08:40:44;14.30;;;9.63;;
19171;SDS011;9718;52.200;21.052;2022-10-16T08:43:24;18.47;;;9.23;;
19171;SDS011;9718;52.200;21.052;2022-10-16T08:48:29;15.20;;;9.10;;
19171;SDS011;9718;52.200;21.052;2022-10-16T08:50:57;16.50;;;8.90;;
19171;SDS011;9718;52.200;21.052;2022-10-16T08:53:31;16.53;;;9.10;;
19171;SDS011;9718;52.200;21.052;2022-10-16T08:56:22;15.77;;;8.47;;
19171;SDS011;9718;52.200;21.052;2022-10-16T08:58:51;14.50;;;9.07;;
19171;SDS011;9718;52.200;21.052;2022-10-16T09:01:28;18.37;;;9.40;;
19171;SDS011;9718;52.200;21.052;2022-10-16T09:07:02;16.43;;;9.27;;
19171;SDS011;9718;52.200;21.052;2022-10-16T09:20:36;15.53;;;8.93;;
19171;SDS011;9718;52.200;21.052;2022-10-16T09:23:28;15.53;;;9.13;;
19171;SDS011;9718;52.200;21.052;2022-10-16T09:25:57;14.00;;;8.43;;
19171;SDS011;9718;52.200;21.052;2022-10-16T09:28:25;15.07;;;8.27;;
19171;SDS011;9718;52.200;21.052;2022-10-16T09:30:52;17.50;;;8.40;;
19171;SDS011;9718;52.200;21.052;2022-10-16T09:33:22;13.23;;;7.93;;
19171;SDS011;9718;52.200;21.052;2022-10-16T09:35:53;13.23;;;8.40;;
19171;SDS011;9718;52.200;21.052;2022-10-16T09:38:31;18.23;;;8.37;;
19171;SDS011;9718;52.200;21.052;2022-10-16T09:41:00;16.07;;;8.73;;
19171;SDS011;9718;52.200;21.052;2022-10-16T09:43:49;16.43;;;8.77;;
19171;SDS011;9718;52.200;21.052;2022-10-16T09:49:01;15.20;;;8.40;;
19171;SDS011;9718;52.200;21.052;2022-10-16T09:51:44;13.67;;;8.57;;
19171;SDS011;9718;52.200;21.052;2022-10-16T09:54:13;15.70;;;9.37;;
19171;SDS011;9718;52.200;21.052;2022-10-16T09:56:43;14.40;;;9.10;;
19171;SDS011;9718;52.200;21.052;2022-10-16T09:59:16;14.63;;;8.90;;
19171;SDS011;9718;52.200;21.052;2022-10-16T10:01:53;15.97;;;8.83;;
19171;SDS011;9718;52.200;21.052;2022-10-16T10:04:22;14.50;;;8.43;;
19171;SDS011;9718;52.200;21.052;2022-10-16T10:06:52;14.00;;;8.40;;
19171;SDS011;9718;52.200;21.052;2022-10-16T10:09:37;16.63;;;8.33;;
19171;SDS011;9718;52.200;21.052;2022-10-16T10:12:06;14.40;;;8.33;;
19171;SDS011;9718;52.200;21.052;2022-10-16T10:14:50;13.47;;;8.40;;
19171;SDS011;9718;52.200;21.052;2022-10-16T10:17:26;13.60;;;8.70;;
19171;SDS011;9718;52.200;21.052;2022-10-16T10:19:57;14.57;;;8.40;;
19171;SDS011;9718;52.200;21.052;2022-10-16T10:22:47;16.90;;;8.17;;
19171;SDS011;9718;52.200;21.052;2022-10-16T10:25:33;15.30;;;8.20;;
19171;SDS011;9718;52.200;21.052;2022-10-16T10:33:30;15.83;;;8.40;;
19171;SDS011;9718;52.200;21.052;2022-10-16T10:52:34;14.87;;;8.07;;
19171;SDS011;9718;52.200;21.052;2022-10-16T10:58:03;14.03;;;8.33;;
19171;SDS011;9718;52.200;21.052;2022-10-16T11:05:56;13.67;;;8.13;;
19171;SDS011;9718;52.200;21.052;2022-10-16T11:08:35;13.60;;;8.30;;
19171;SDS011;9718;52.200;21.052;2022-10-16T11:11:05;17.17;;;9.10;;
19171;SDS011;9718;52.200;21.052;2022-10-16T11:16:36;15.73;;;8.33;;
19171;SDS011;9718;52.200;21.052;2022-10-16T11:21:55;17.80;;;7.73;;
19171;SDS011;9718;52.200;21.052;2022-10-16T11:27:14;13.33;;;7.53;;
19171;SDS011;9718;52.200;21.052;2022-10-16T11:29:53;13.80;;;8.00;;
19171;SDS011;9718;52.200;21.052;2022-10-16T11:32:29;13.63;;;7.83;;
19171;SDS011;9718;52.200;21.052;2022-10-16T11:35:39;13.40;;;7.43;;
19171;SDS011;9718;52.200;21.052;2022-10-16T11:38:14;10.83;;;7.40;;
19171;SDS011;9718;52.200;21.052;2022-10-16T11:46:46;14.20;;;7.20;;
19171;SDS011;9718;52.200;21.052;2022-10-16T11:49:57;12.60;;;7.37;;
19171;SDS011;9718;52.200;21.052;2022-10-16T11:55:34;12.13;;;7.50;;
19171;SDS011;9718;52.200;21.052;2022-10-16T12:04:29;12.73;;;7.53;;
19171;SDS011;9718;52.200;21.052;2022-10-16T12:07:24;12.70;;;7.37;;
19171;SDS011;9718;52.200;21.052;2022-10-16T12:10:22;10.43;;;6.77;;
19171;SDS011;9718;52.200;21.052;2022-10-16T12:19:15;16.33;;;7.37;;
19171;SDS011;9718;52.200;21.052;2022-10-16T12:22:15;12.77;;;7.50;;
19171;SDS011;9718;52.200;21.052;2022-10-16T12:24:59;14.80;;;7.90;;
19171;SDS011;9718;52.200;21.052;2022-10-16T12:27:30;12.30;;;7.27;;
19171;SDS011;9718;52.200;21.052;2022-10-16T12:29:59;12.50;;;7.40;;
19171;SDS011;9718;52.200;21.052;2022-10-16T12:32:33;14.70;;;7.73;;
19171;SDS011;9718;52.200;21.052;2022-10-16T12:35:18;11.07;;;6.97;;
19171;SDS011;9718;52.200;21.052;2022-10-16T12:40:46;16.17;;;7.23;;
19171;SDS011;9718;52.200;21.052;2022-10-16T12:46:19;13.00;;;7.50;;
19171;SDS011;9718;52.200;21.052;2022-10-16T12:51:42;13.90;;;6.93;;
19171;SDS011;9718;52.200;21.052;2022-10-16T12:54:13;15.47;;;7.67;;
19171;SDS011;9718;52.200;21.052;2022-10-16T12:57:03;12.43;;;7.70;;
19171;SDS011;9718;52.200;21.052;2022-10-16T13:02:56;11.67;;;7.00;;
19171;SDS011;9718;52.200;21.052;2022-10-16T13:10:30;14.77;;;6.97;;
19171;SDS011;9718;52.200;21.052;2022-10-16T13:18:39;12.67;;;6.80;;
19171;SDS011;9718;52.200;21.052;2022-10-16T13:29:28;13.80;;;6.83;;
19171;SDS011;9718;52.200;21.052;2022-10-16T13:32:00;13.73;;;6.30;;
19171;SDS011;9718;52.200;21.052;2022-10-16T13:34:41;16.30;;;7.00;;
19171;SDS011;9718;52.200;21.052;2022-10-16T13:37:20;11.47;;;6.67;;
19171;SDS011;9718;52.200;21.052;2022-10-16T13:40:01;14.23;;;7.13;;
19171;SDS011;9718;52.200;21.052;2022-10-16T13:42:33;12.30;;;7.27;;
19171;SDS011;9718;52.200;21.052;2022-10-16T13:45:01;13.17;;;6.97;;
19171;SDS011;9718;52.200;21.052;2022-10-16T13:47:29;13.37;;;6.67;;
19171;SDS011;9718;52.200;21.052;2022-10-16T13:50:00;13.43;;;7.30;;
19171;SDS011;9718;52.200;21.052;2022-10-16T13:52:38;10.43;;;6.80;;
19171;SDS011;9718;52.200;21.052;2022-10-16T13:55:13;11.83;;;6.80;;
19171;SDS011;9718;52.200;21.052;2022-10-16T13:57:41;13.07;;;6.93;;
19171;SDS011;9718;52.200;21.052;2022-10-16T14:00:25;11.80;;;7.43;;
19171;SDS011;9718;52.200;21.052;2022-10-16T14:03:15;12.30;;;7.80;;
19171;SDS011;9718;52.200;21.052;2022-10-16T14:05:56;11.23;;;6.60;;
19171;SDS011;9718;52.200;21.052;2022-10-16T14:08:27;11.50;;;7.07;;
19171;SDS011;9718;52.200;21.052;2022-10-16T14:10:57;12.80;;;6.93;;
19171;SDS011;9718;52.200;21.052;2022-10-16T14:13:43;11.87;;;6.20;;
19171;SDS011;9718;52.200;21.052;2022-10-16T14:16:45;12.13;;;7.33;;
19171;SDS011;9718;52.200;21.052;2022-10-16T14:19:13;11.43;;;6.40;;
19171;SDS011;9718;52.200;21.052;2022-10-16T14:21:56;12.17;;;7.13;;
19171;SDS011;9718;52.200;21.052;2022-10-16T14:24:34;12.67;;;7.40;;
19171;SDS011;9718;52.200;21.052;2022-10-16T14:27:02;19.97;;;6.90;;
19171;SDS011;9718;52.200;21.052;2022-10-16T14:29:49;11.10;;;7.03;;
19171;SDS011;9718;52.200;21.052;2022-10-16T14:32:22;9.63;;;6.27;;
19171;SDS011;9718;52.200;21.052;2022-10-16T14:34:54;12.73;;;7.20;;
19171;SDS011;9718;52.200;21.052;2022-10-16T14:37:26;16.07;;;7.83;;
19171;SDS011;9718;52.200;21.052;2022-10-16T14:39:55;14.30;;;7.07;;
19171;SDS011;9718;52.200;21.052;2022-10-16T14:42:30;11.53;;;6.57;;
19171;SDS011;9718;52.200;21.052;2022-10-16T14:44:57;15.00;;;7.17;;
19171;SDS011;9718;52.200;21.052;2022-10-16T14:47:25;13.37;;;6.63;;
19171;SDS011;9718;52.200;21.052;2022-10-16T14:49:54;14.40;;;7.53;;
19171;SDS011;9718;52.200;21.052;2022-10-16T14:52:24;11.00;;;6.80;;
19171;SDS011;9718;52.200;21.052;2022-10-16T14:54:51;11.33;;;6.67;;
19171;SDS011;9718;52.200;21.052;2022-10-16T14:57:24;13.40;;;6.87;;
19171;SDS011;9718;52.200;21.052;2022-10-16T14:59:55;17.30;;;7.60;;
19171;SDS011;9718;52.200;21.052;2022-10-16T15:02:35;12.63;;;7.07;;
19171;SDS011;9718;52.200;21.052;2022-10-16T15:05:10;14.97;;;7.67;;
19171;SDS011;9718;52.200;21.052;2022-10-16T15:07:46;11.67;;;7.43;;
19171;SDS011;9718;52.200;21.052;2022-10-16T15:10:13;13.70;;;7.47;;
19171;SDS011;9718;52.200;21.052;2022-10-16T15:12:41;12.17;;;7.30;;
19171;SDS011;9718;52.200;21.052;2022-10-16T15:15:21;13.77;;;7.07;;
19171;SDS011;9718;52.200;21.052;2022-10-16T15:17:53;15.20;;;7.47;;
19171;SDS011;9718;52.200;21.052;2022-10-16T15:20:27;11.30;;;7.03;;
19171;SDS011;9718;52.200;21.052;2022-10-16T15:22:56;14.63;;;7.87;;
19171;SDS011;9718;52.200;21.052;2022-10-16T15:28:03;13.50;;;8.00;;
19171;SDS011;9718;52.200;21.052;2022-10-16T15:30:31;12.67;;;8.37;;
19171;SDS011;9718;52.200;21.052;2022-10-16T15:32:59;12.50;;;7.67;;
19171;SDS011;9718;52.200;21.052;2022-10-16T15:35:26;12.93;;;7.83;;
19171;SDS011;9718;52.200;21.052;2022-10-16T15:37:53;12.03;;;7.30;;
19171;SDS011;9718;52.200;21.052;2022-10-16T15:40:21;15.07;;;8.33;;
19171;SDS011;9718;52.200;21.052;2022-10-16T15:42:49;15.57;;;8.40;;
19171;SDS011;9718;52.200;21.052;2022-10-16T15:45:16;13.77;;;8.10;;
19171;SDS011;9718;52.200;21.052;2022-10-16T15:47:45;13.80;;;7.87;;
19171;SDS011;9718;52.200;21.052;2022-10-16T15:50:13;12.43;;;7.50;;
19171;SDS011;9718;52.200;21.052;2022-10-16T15:52:41;13.20;;;7.23;;
19171;SDS011;9718;52.200;21.052;2022-10-16T15:55:09;16.40;;;8.00;;
19171;SDS011;9718;52.200;21.052;2022-10-16T15:57:38;14.30;;;7.70;;
19171;SDS011;9718;52.200;21.052;2022-10-16T16:00:07;16.93;;;8.93;;
19171;SDS011;9718;52.200;21.052;2022-10-16T16:02:43;14.57;;;7.80;;
19171;SDS011;9718;52.200;21.052;2022-10-16T16:05:15;19.83;;;8.10;;
19171;SDS011;9718;52.200;21.052;2022-10-16T16:07:43;15.10;;;7.00;;
19171;SDS011;9718;52.200;21.052;2022-10-16T16:10:10;14.33;;;8.07;;
19171;SDS011;9718;52.200;21.052;2022-10-16T16:12:37;15.30;;;8.30;;
19171;SDS011;9718;52.200;21.052;2022-10-16T16:15:05;16.27;;;9.13;;
19171;SDS011;9718;52.200;21.052;2022-10-16T16:17:34;16.53;;;9.13;;
19171;SDS011;9718;52.200;21.052;2022-10-16T16:20:02;14.67;;;8.70;;
19171;SDS011;9718;52.200;21.052;2022-10-16T16:22:31;14.37;;;9.10;;
19171;SDS011;9718;52.200;21.052;2022-10-16T16:24:58;14.00;;;8.20;;
19171;SDS011;9718;52.200;21.052;2022-10-16T16:27:25;17.90;;;9.40;;
19171;SDS011;9718;52.200;21.052;2022-10-16T16:29:53;16.87;;;8.67;;
19171;SDS011;9718;52.200;21.052;2022-10-16T16:32:21;14.17;;;9.03;;
19171;SDS011;9718;52.200;21.052;2022-10-16T16:34:49;15.20;;;9.33;;
19171;SDS011;9718;52.200;21.052;2022-10-16T16:37:16;14.03;;;8.83;;
19171;SDS011;9718;52.200;21.052;2022-10-16T16:39:43;15.97;;;8.83;;
19171;SDS011;9718;52.200;21.052;2022-10-16T16:42:10;15.70;;;9.63;;
19171;SDS011;9718;52.200;21.052;2022-10-16T16:44:37;16.87;;;9.53;;
19171;SDS011;9718;52.200;21.052;2022-10-16T16:47:05;17.93;;;9.70;;
19171;SDS011;9718;52.200;21.052;2022-10-16T16:49:32;15.73;;;10.73;;
19171;SDS011;9718;52.200;21.052;2022-10-16T16:51:59;19.43;;;9.60;;
19171;SDS011;9718;52.200;21.052;2022-10-16T16:54:26;14.43;;;9.17;;
19171;SDS011;9718;52.200;21.052;2022-10-16T16:56:54;16.40;;;9.10;;
19171;SDS011;9718;52.200;21.052;2022-10-16T16:59:21;16.37;;;9.33;;
19171;SDS011;9718;52.200;21.052;2022-10-16T17:01:48;21.17;;;10.20;;
19171;SDS011;9718;52.200;21.052;2022-10-16T17:04:22;16.83;;;10.27;;
19171;SDS011;9718;52.200;21.052;2022-10-16T17:06:49;16.10;;;10.23;;